Summitville, Indiana
Current Conditions -  °F | °C
As of 5:15 AM on Saturday 25 Oct 2014 (Local Time) from KMZZ Reporting Station
Overcast Overcast  
Wind Chill: 52°   Ceiling: 3700
Heat Index: 52°   Visibility: 7mi
Dew Point: 50°   Wind: 7mph
Humidity: 91%   Direction: 200°SSW
Pressure: 29.94"   Gusts: NA
Location:  40.34°N, 85.64°W
Report Text: KMZZ 250915Z AUTO 20006KT 7SM OVC037 11/10 A2994 RMK AO2 T01120098
Loading
Personal Weather Stations






























Interactive Weather Map
Tropical Storm Tracking
New forecast layout! Learn more

10-Day Weather Forecast

Advertisements
Track Severe Weather on mobile